Startpagina
METAR-TAF:

METAR-TAF

Vliegvelden :

Loja, Ecuador

breedte: 03-59-45S, lengte: 079-22-19W, hoogte: 1236 m

Actueel weer

Dit bericht is 37 minuten geleden gemaakt, om 19:00 UTC
Wind 9 kt uit het westnoordwesten, variërend tussen het zuidzuidwesten en het noordnoordwesten
Temperatuur 29°C
Vochtigheid 45%
Druk 1016 hPa
Zicht 10 km of meer
Verspreide wolken op 4000 ft

METAR: SECA 241900Z 29009KT 200V330 9999 SCT040 29/16 Q1016

Tijdstip: 14:37 (19:37 UTC)


TAF: ontbreekt

Waarnemingen en weersverwachtingen van meer dan 4000 vliegvelden (METAR en TAF).

De beschikbare stations zijn de gele en rode punten op de kaart.

Ga met uw muis naar het station om de naam te zien.

Klik dan om waarnemingen en weersverwachtingen te zien.

kaart wijzigen: klik op de groene knoppen met een zwart kruis om in te zoomen, op de groene knop met een streepje om uit te zoomen of op de groene pijlen voor aangrenzende kaarten.


METAR-TAF: